Latest Weather Observations for Longerenong

IDV60801

Issued at 7:35 pm EST Friday 29 August 2014 (issued every 30 minutes, with the page automatically refreshed every 10 minutes)

About weather observations | Map of weather stations | Latest weather observations for VIC | Other Formats
Station Details ID: 079028 Name: LONGERENONG Lat: -36.67 Lon: 142.30 Height: 133.0 m
Data from the previous 72 hours. | See also: Recent months at Longerenong
Date/Time
EST
Temp
°C
App
Temp
°C
Dew
Point
Rel
Hum
%
Delta-T
°C
Wind Press
QNH
hPa
Press
MSL
hPa
Rain
since 9 am
mm
Dir
 
Spd
km/h
Gust
km/h
Spd
kts
Gust
kts
29/07:30pm 11.5 7.9 6.6 72 2.3 SE 15 15 8 8 - - 0.0
29/07:00pm 12.8 9.2 6.6 66 3.0 ESE 15 19 8 10 - - 0.0
29/06:30pm 13.1 10.4 7.3 68 2.8 ESE 11 15 6 8 - - 0.0
29/06:00pm 16.9 15.2 9.8 63 3.8 ESE 9 11 5 6 - - 0.0
29/05:30pm 18.8 17.6 10.4 58 4.5 SE 7 11 4 6 - - 0.0
29/05:00pm 20.9 18.5 8.5 45 6.5 SSW 11 17 6 9 - - 0.0
29/04:30pm 21.4 18.9 8.3 43 6.9 SSW 11 19 6 10 - - 0.0
29/04:00pm 21.7 19.2 8.2 42 7.1 SSW 11 19 6 10 - - 0.0
29/03:30pm 21.8 19.9 7.6 40 7.4 S 7 15 4 8 - - 0.0
29/03:00pm 21.7 18.8 6.4 37 7.8 SSW 11 19 6 10 - - 0.0
29/02:30pm 21.2 18.8 7.1 40 7.3 S 9 19 5 10 - - 0.0
29/02:00pm 20.9 18.1 6.8 40 7.2 S 11 17 6 9 - - 0.0
29/01:30pm 20.6 18.3 8.9 47 6.2 S 11 17 6 9 - - 0.0
29/01:00pm 20.0 18.7 10.1 53 5.4 SW 7 13 4 7 - - 0.0
29/12:30pm 18.9 17.5 8.8 52 5.3 S 6 11 3 6 - - 0.0
29/12:00pm 18.4 17.6 9.5 56 4.7 SE 4 7 2 4 - - 0.0
29/11:30am 17.4 16.6 9.6 60 4.1 S 4 7 2 4 - - 0.0
29/11:00am 16.8 16.5 10.0 64 3.6 SE 2 6 1 3 - - 0.0
29/10:30am 15.5 14.4 10.1 70 2.8 E 6 7 3 4 - - 0.0
29/10:00am 14.2 13.0 9.6 74 2.4 ESE 6 9 3 5 - - 0.0
29/09:30am 12.4 10.8 8.9 79 1.8 ESE 7 11 4 6 - - 0.0
29/09:00am 9.7 7.9 7.3 85 1.1 ESE 6 7 3 4 - - 0.0
29/08:30am 6.9 6.1 6.5 97 0.2 CALM 0 4 0 2 - - 0.0
29/08:00am 4.6 2.9 4.2 97 0.2 SE 2 4 1 2 - - 0.0
29/07:30am 3.3 1.8 2.9 97 0.2 CALM 0 2 0 1 - - 0.0
29/07:00am 2.0 -0.5 1.4 96 0.2 SE 4 4 2 2 - - 0.0
29/06:30am 2.5 0.1 2.1 97 0.2 SE 4 6 2 3 - - 0.0
29/06:00am 4.2 2.1 3.8 97 0.2 SE 4 6 2 3 - - 0.0
29/05:30am 4.2 2.1 3.8 97 0.2 SE 4 4 2 2 - - 0.0
29/05:00am 4.7 2.7 4.3 97 0.2 SE 4 4 2 2 - - 0.0
29/04:30am 4.1 2.0 3.7 97 0.2 SE 4 4 2 2 - - 0.0
29/04:00am 5.7 4.3 5.3 97 0.2 SE 2 4 1 2 - - 0.0
29/03:30am 5.6 3.8 5.2 97 0.2 SE 4 4 2 2 - - 0.0
29/03:00am 5.2 3.2 4.5 95 0.3 SE 4 4 2 2 - - 0.0
29/02:30am 5.5 3.8 4.2 91 0.6 SE 2 4 1 2 - - 0.0
29/02:00am 6.3 4.3 4.6 89 0.7 SE 4 6 2 3 - - 0.0
29/01:30am 8.3 6.2 6.6 89 0.8 ESE 7 9 4 5 - - 0.0
29/01:00am 8.7 6.3 6.8 88 0.9 SE 9 11 5 6 - - 0.0
29/12:30am 9.2 6.7 6.6 84 1.2 SE 9 11 5 6 - - 0.0
29/12:00am 7.3 4.7 4.4 82 1.3 SE 7 9 4 5 - - 0.0
 
Date/Time
EST
Temp
°C
App
Temp
°C
Dew
Point
Rel
Hum
%
Delta-T
°C
Wind Press
QNH
hPa
Press
MSL
hPa
Rain
since 9 am
mm
Dir
 
Spd
km/h
Gust
km/h
Spd
kts
Gust
kts
28/11:30pm 7.5 5.3 5.5 87 0.9 S 6 7 3 4 - - 0.0
28/11:00pm 7.3 5.5 5.6 89 0.8 S 4 7 2 4 - - 0.0
28/10:30pm 6.0 3.2 2.3 77 1.5 WSW 6 7 3 4 - - 0.0
28/10:00pm 10.2 9.0 6.4 77 1.8 WSW 2 4 1 2 - - 0.0
28/09:30pm 10.6 9.1 6.6 76 1.9 WSW 4 6 2 3 - - 0.0
28/09:00pm 7.2 5.6 4.5 83 1.2 WSW 2 6 1 3 - - 0.0
28/08:30pm 11.0 10.2 6.6 74 2.1 CALM 0 0 0 0 - - 0.0
28/08:00pm 12.7 11.3 7.2 69 2.7 WSW 4 6 2 3 - - 0.0
28/07:30pm 11.1 9.1 6.3 72 2.3 SW 6 7 3 4 - - 0.0
28/07:00pm 13.8 12.3 6.9 63 3.4 S 4 4 2 2 - - 0.0
28/06:30pm 14.7 13.1 6.5 58 4.0 SSW 4 6 2 3 - - 0.0
28/06:00pm 16.9 15.5 7.3 53 4.8 SSW 4 7 2 4 - - 0.0
28/05:30pm 19.1 17.5 7.8 48 5.8 SW 6 7 3 4 - - 0.0
28/05:00pm 20.3 17.7 6.3 40 7.1 W 9 13 5 7 - - 0.0
28/04:30pm 21.0 18.9 6.5 39 7.4 W 7 11 4 6 - - 0.0
28/04:00pm 21.1 18.9 6.2 38 7.5 WSW 7 13 4 7 - - 0.0
28/03:30pm 21.3 18.9 5.2 35 8.0 W 7 13 4 7 - - 0.0
28/03:00pm 21.0 18.4 4.1 33 8.2 W 7 13 4 7 - - 0.0
28/02:30pm 20.7 18.2 6.6 40 7.2 WSW 9 17 5 9 - - 0.0
28/02:00pm 20.4 17.6 7.1 42 6.8 W 11 17 6 9 - - 0.0
28/01:30pm 19.9 17.5 7.0 43 6.6 W 9 17 5 9 - - 0.0
28/01:00pm 19.7 17.6 6.8 43 6.5 WSW 7 15 4 8 - - 0.0
28/12:30pm 19.9 18.6 9.2 50 5.7 WNW 6 11 3 6 - - 0.0
28/12:00pm 18.9 17.3 8.8 52 5.3 NW 7 15 4 8 - - 0.0
28/11:30am 18.6 17.0 8.8 53 5.1 N 7 13 4 7 - - 0.0
28/11:00am 17.8 16.6 9.7 59 4.3 NNW 6 9 3 5 - - 0.0
28/10:30am 16.2 14.9 9.2 63 3.6 N 6 9 3 5 - - 0.0
28/10:00am 15.0 13.1 2.9 44 5.5 NNE 2 6 1 3 - - 0.0
28/09:30am 13.1 12.5 9.0 76 2.1 E 2 4 1 2 - - 0.0
28/09:00am 10.4 9.2 8.0 85 1.2 E 4 6 2 3 - - 0.0
28/08:30am 8.1 6.6 7.0 93 0.5 SE 4 6 2 3 - - 0.0
28/08:00am 6.2 4.5 5.8 97 0.2 SE 4 6 2 3 - - 0.0
28/07:30am 4.5 2.1 4.1 97 0.2 SE 6 6 3 3 - - 0.0
28/07:00am 3.2 0.9 2.6 96 0.2 SE 4 4 2 2 - - 0.0
28/06:30am 3.7 1.5 3.1 96 0.2 SE 4 4 2 2 - - 0.0
28/06:00am 3.5 1.2 2.9 96 0.2 SE 4 4 2 2 - - 0.0
28/05:30am 3.6 1.3 3.0 96 0.2 SE 4 4 2 2 - - 0.0
28/05:00am 3.5 1.2 2.9 96 0.2 SE 4 4 2 2 - - 0.0
28/04:30am 4.4 2.3 3.8 96 0.3 SE 4 4 2 2 - - 0.0
28/04:00am 3.7 1.8 2.7 93 0.4 SE 2 4 1 2 - - 0.0
28/03:30am 6.6 4.9 5.9 95 0.3 SE 4 6 2 3 - - 0.0
28/03:00am 5.4 3.8 4.5 94 0.4 S 2 4 1 2 - - 0.0
28/02:30am 4.3 2.0 3.0 91 0.5 S 4 4 2 2 - - 0.0
28/02:00am 6.0 4.1 4.8 92 0.5 SSE 4 6 2 3 - - 0.0
28/01:30am 5.6 3.6 4.4 92 0.5 SSE 4 6 2 3 - - 0.0
28/01:00am 5.3 2.8 4.0 91 0.6 S 6 6 3 3 - - 0.0
28/12:30am 5.9 4.3 4.7 92 0.5 SSW 2 4 1 2 - - 0.0
28/12:00am 5.0 2.4 3.0 87 0.8 SSE 6 7 3 4 - - 0.0
 
Date/Time
EST
Temp
°C
App
Temp
°C
Dew
Point
Rel
Hum
%
Delta-T
°C
Wind Press
QNH
hPa
Press
MSL
hPa
Rain
since 9 am
mm
Dir
 
Spd
km/h
Gust
km/h
Spd
kts
Gust
kts
27/11:30pm 6.2 4.7 3.0 80 1.3 CALM 0 4 0 2 - - 0.0
27/11:00pm 10.1 7.4 5.7 74 2.0 ESE 9 9 5 5 - - 0.0
27/10:30pm 9.6 7.2 5.4 75 1.9 ESE 7 9 4 5 - - 0.0
27/10:00pm 8.4 6.6 5.3 81 1.4 SSE 4 4 2 2 - - 0.0
27/09:30pm 9.2 7.4 5.6 78 1.6 SSE 4 6 2 3 - - 0.0
27/09:00pm 9.8 7.8 6.3 79 1.6 SSE 6 7 3 4 - - 0.0
27/08:30pm 9.6 7.5 5.8 77 1.8 SSE 6 9 3 5 - - 0.0
27/08:00pm 10.2 8.7 5.0 70 2.4 SSW 2 4 1 2 - - 0.0
27/07:30pm 12.9 11.8 6.7 66 3.0 SSW 2 4 1 2 - - 0.0
27/07:00pm 12.8 10.8 6.4 65 3.1 SSW 6 6 3 3 - - 0.0
27/06:30pm 14.1 12.2 6.5 60 3.7 S 6 6 3 3 - - 0.0
27/06:00pm 15.6 13.7 6.9 56 4.3 SSW 6 7 3 4 - - 0.0
27/05:30pm 16.9 15.1 7.3 53 4.8 SSW 6 7 3 4 - - 0.0
27/05:00pm 18.7 16.8 7.5 48 5.7 S 7 11 4 6 - - 0.0
27/04:30pm 19.3 16.7 6.1 42 6.6 S 9 11 5 6 - - 0.0
27/04:00pm 19.6 16.6 6.0 41 6.8 SSW 11 17 6 9 - - 0.0
27/03:30pm 19.9 17.8 6.6 42 6.7 SW 7 15 4 8 - - 0.0
27/03:00pm 20.1 17.7 7.1 43 6.6 W 9 15 5 8 - - 0.0
27/02:30pm 19.5 17.4 6.6 43 6.5 SW 7 13 4 7 - - 0.0
27/02:00pm 19.6 16.7 6.7 43 6.5 W 11 19 6 10 - - 0.0
27/01:30pm 19.0 16.2 7.1 46 6.0 WSW 11 17 6 9 - - 0.0
27/01:00pm 18.7 16.7 7.2 47 5.8 W 7 15 4 8 - - 0.0
27/12:30pm 18.3 16.6 7.4 49 5.5 W 6 11 3 6 - - 0.0
27/12:00pm 18.9 17.7 9.4 54 5.0 NW 6 9 3 5 - - 0.0
27/11:30am 18.0 16.8 8.0 52 5.1 NE 4 9 2 5 - - 0.0
27/11:00am 16.5 15.5 9.0 61 3.9 NNE 4 7 2 4 - - 0.0
27/10:30am 15.5 13.9 6.2 54 4.5 NNE 4 7 2 4 - - 0.0
27/10:00am 13.2 13.0 8.9 75 2.2 CALM 0 4 0 2 - - 0.0
27/09:30am 10.7 10.3 8.1 84 1.3 CALM 0 0 0 0 - - 0.0
27/09:00am 8.8 8.1 8.4 97 0.2 E 2 4 1 2 - - 0.0
27/08:30am 6.6 5.8 6.3 98 0.1 CALM 0 2 0 1 - - 0.0
27/08:00am 2.6 -0.2 2.2 97 0.2 E 6 9 3 5 - - 0.0
27/07:30am 2.1 0.0 1.7 97 0.2 E 2 7 1 4 - - 0.0
27/07:00am 3.2 0.5 2.8 97 0.2 E 6 9 3 5 - - 0.0
27/06:30am 1.0 -1.7 0.6 97 0.1 ESE 4 7 2 4 - - 0.0
27/06:00am 1.5 -1.1 1.1 97 0.2 ESE 4 6 2 3 - - 0.0
27/05:30am 1.0 -1.7 0.4 96 0.2 ESE 4 4 2 2 - - 0.0
27/05:00am 3.5 0.9 3.1 97 0.2 E 6 7 3 4 - - 0.0
27/04:30am 4.5 2.4 4.1 97 0.2 ESE 4 7 2 4 - - 0.0
27/04:00am 3.7 1.1 3.3 97 0.2 ESE 6 6 3 3 - - 0.0
27/03:30am 4.2 2.1 3.8 97 0.2 ESE 4 4 2 2 - - 0.0
27/03:00am 4.5 2.1 4.1 97 0.2 ESE 6 6 3 3 - - 0.0
27/02:30am 3.8 1.6 3.2 96 0.2 ESE 4 6 2 3 - - 0.0
27/02:00am 3.0 0.6 2.0 93 0.4 ESE 4 7 2 4 - - 0.0
27/01:30am 7.3 5.4 6.6 95 0.3 E 6 7 3 4 - - 0.0
27/01:00am 7.5 5.5 7.1 97 0.2 ESE 7 9 4 5 - - 0.0
27/12:30am 4.2 2.0 3.3 94 0.4 ESE 4 4 2 2 - - 0.0
27/12:00am 4.4 2.5 3.1 91 0.5 E 2 4 1 2 - - 0.0
 
Date/Time
EST
Temp
°C
App
Temp
°C
Dew
Point
Rel
Hum
%
Delta-T
°C
Wind Press
QNH
hPa
Press
MSL
hPa
Rain
since 9 am
mm
Dir
 
Spd
km/h
Gust
km/h
Spd
kts
Gust
kts
26/11:30pm 5.8 3.3 3.8 87 0.9 E 6 7 3 4 - - 0.0
26/11:00pm 8.3 6.2 6.6 89 0.8 E 7 9 4 5 - - 0.0
26/10:30pm 9.2 7.2 7.0 86 1.0 E 7 9 4 5 - - 0.0
26/10:00pm 9.7 7.4 7.3 85 1.1 E 9 11 5 6 - - 0.0
26/09:30pm 9.5 7.5 7.1 85 1.1 E 7 9 4 5 - - 0.0
26/09:00pm 9.6 7.6 7.2 85 1.1 E 7 9 4 5 - - 0.0
26/08:30pm 10.4 8.1 7.6 83 1.4 ESE 9 11 5 6 - - 0.0
26/08:00pm 10.9 8.7 7.8 81 1.5 ESE 9 11 5 6 - - 0.0

Other Formats:

Comma delimited format used in spreadsheet applications
http://www.bom.gov.au/fwo/IDV60801/IDV60801.95835.axf

JavaScript Object Notation format (JSON) in row-major order
http://www.bom.gov.au/fwo/IDV60801/IDV60801.95835.json